createdAt,value
2023-01-06T00:01:11.962Z,95.02
2023-01-06T00:03:39.546Z,95.51
2023-01-06T00:06:10.537Z,95.75
2023-01-06T00:08:38.386Z,96.24
2023-01-06T00:11:06.622Z,96.23
2023-01-06T00:13:33.995Z,97.14
2023-01-06T00:16:05.141Z,96.67
2023-01-06T00:18:32.573Z,96.21
2023-01-06T00:21:00.003Z,96.15
2023-01-06T00:23:29.032Z,96.06
2023-01-06T00:25:56.589Z,95.86
2023-01-06T00:28:23.963Z,95.99
2023-01-06T00:30:51.757Z,96.22
2023-01-06T00:33:19.320Z,95.45
2023-01-06T00:35:46.725Z,95.60
2023-01-06T00:38:14.127Z,94.98
2023-01-06T00:40:42.820Z,94.98
2023-01-06T00:43:10.188Z,95.18
2023-01-06T00:45:37.575Z,94.96
2023-01-06T00:48:05.521Z,94.95
2023-01-06T00:50:32.805Z,94.79
2023-01-06T00:53:00.180Z,95.10
2023-01-06T00:55:27.604Z,95.27
2023-01-06T00:57:56.309Z,94.86
2023-01-06T01:00:24.803Z,94.54
2023-01-06T01:02:52.228Z,94.90
2023-01-06T01:05:19.623Z,95.14
2023-01-06T01:07:46.969Z,94.67
2023-01-06T01:10:14.349Z,94.19
2023-01-06T01:12:41.700Z,95.19
2023-01-06T01:15:11.693Z,94.70
2023-01-06T01:17:40.983Z,94.79
2023-01-06T01:20:09.968Z,95.99
2023-01-06T01:22:37.319Z,95.15
2023-01-06T01:25:05.121Z,95.37
2023-01-06T01:27:32.485Z,96.03
2023-01-06T01:29:59.857Z,96.15
2023-01-06T01:32:28.651Z,96.41
2023-01-06T01:34:56.004Z,96.53
2023-01-06T01:37:23.402Z,96.71
2023-01-06T01:39:50.781Z,96.56
2023-01-06T01:42:20.662Z,96.88
2023-01-06T01:45:02.989Z,97.04
2023-01-06T01:47:40.280Z,96.82
2023-01-06T01:50:14.807Z,96.52
2023-01-06T01:52:44.174Z,96.53
2023-01-06T01:55:13.062Z,96.46
2023-01-06T01:57:46.158Z,96.91
2023-01-06T02:00:14.137Z,96.75
2023-01-06T02:02:43.737Z,96.21
2023-01-06T02:05:13.284Z,95.90
2023-01-06T02:07:41.808Z,95.62
2023-01-06T02:10:13.147Z,95.80
2023-01-06T02:12:41.472Z,96.46
2023-01-06T02:15:16.887Z,95.77
2023-01-06T02:18:05.032Z,95.65
2023-01-06T02:20:47.027Z,95.72
2023-01-06T02:23:45.275Z,95.99
2023-01-06T02:26:58.269Z,96.26
2023-01-06T02:30:08.385Z,96.54
2023-01-06T02:32:52.920Z,96.88
2023-01-06T02:35:39.271Z,96.40
2023-01-06T02:38:17.897Z,96.83
2023-01-06T02:40:57.819Z,97.07
2023-01-06T02:43:31.949Z,97.31
2023-01-06T02:46:09.408Z,98.13
2023-01-06T02:48:47.787Z,98.92
2023-01-06T02:51:19.550Z,98.19
2023-01-06T02:54:02.612Z,98.02
2023-01-06T02:56:33.858Z,98.33
2023-01-06T02:59:07.062Z,98.02
2023-01-06T03:01:41.310Z,97.92
2023-01-06T03:04:18.141Z,97.50
2023-01-06T03:06:48.495Z,97.41
2023-01-06T03:09:20.052Z,97.53
2023-01-06T03:11:51.547Z,97.36
2023-01-06T03:14:35.325Z,97.21
2023-01-06T03:17:03.453Z,97.24
2023-01-06T03:19:33.069Z,97.50
2023-01-06T03:22:02.693Z,97.18
2023-01-06T03:24:30.445Z,97.43
2023-01-06T03:26:58.211Z,97.03
2023-01-06T03:29:25.970Z,96.59
2023-01-06T03:32:01.973Z,96.89
2023-01-06T03:34:45.959Z,97.84
2023-01-06T03:37:24.270Z,97.42
2023-01-06T03:39:59.821Z,97.22
2023-01-06T03:42:51.320Z,96.89
2023-01-06T03:45:37.084Z,96.67
2023-01-06T03:48:12.280Z,96.15
2023-01-06T03:50:46.065Z,95.74
2023-01-06T03:53:30.107Z,95.52
2023-01-06T03:56:07.051Z,96.38
2023-01-06T03:58:36.308Z,95.68
2023-01-06T04:01:04.143Z,96.13
2023-01-06T04:03:31.892Z,96.25
2023-01-06T04:06:00.669Z,95.58
2023-01-06T04:08:28.520Z,94.83
2023-01-06T04:10:55.908Z,95.35
2023-01-06T04:13:22.313Z,95.31
2023-01-06T04:15:49.820Z,94.82
2023-01-06T04:18:17.210Z,95.01
2023-01-06T04:20:44.567Z,94.70
2023-01-06T04:23:13.277Z,93.99
2023-01-06T04:25:40.714Z,93.93
2023-01-06T04:28:08.087Z,95.04
2023-01-06T04:30:35.472Z,94.90
2023-01-06T04:33:02.840Z,94.32
2023-01-06T04:35:30.190Z,94.30
2023-01-06T04:37:57.536Z,94.32
2023-01-06T04:40:26.201Z,93.54
2023-01-06T04:43:05.848Z,93.71
2023-01-06T04:45:33.647Z,93.86
2023-01-06T04:51:01.142Z,94.02
2023-01-06T04:53:28.513Z,93.88
2023-01-06T04:55:57.213Z,94.18
2023-01-06T04:58:24.596Z,94.74
2023-01-06T05:00:51.995Z,95.36
2023-01-06T05:03:19.397Z,94.14
2023-01-06T05:05:46.732Z,94.08
2023-01-06T05:08:14.099Z,93.71
2023-01-06T05:10:41.441Z,93.58
2023-01-06T05:13:10.158Z,93.75
2023-01-06T05:15:39.165Z,94.06
2023-01-06T05:18:06.777Z,93.70
2023-01-06T05:20:34.131Z,94.00
2023-01-06T05:23:01.559Z,94.09
2023-01-06T05:25:28.963Z,94.94
2023-01-06T05:27:56.321Z,94.12
2023-01-06T05:30:25.024Z,94.26
2023-01-06T05:32:52.384Z,94.97
2023-01-06T05:35:20.543Z,94.40
2023-01-06T05:37:47.897Z,94.19
2023-01-06T05:40:15.429Z,94.87
2023-01-06T05:42:42.827Z,95.17
2023-01-06T05:45:11.901Z,95.42
2023-01-06T05:47:40.724Z,95.61
2023-01-06T05:50:08.946Z,96.12
2023-01-06T05:52:36.322Z,95.90
2023-01-06T05:55:03.836Z,96.55
2023-01-06T05:57:33.472Z,97.25
2023-01-06T06:00:00.850Z,97.35
2023-01-06T06:02:28.486Z,97.08
2023-01-06T06:04:57.204Z,97.84
2023-01-06T06:07:24.617Z,98.07
2023-01-06T06:09:52.427Z,97.77
2023-01-06T06:12:19.841Z,98.42
2023-01-06T06:14:47.226Z,97.92
2023-01-06T06:17:14.627Z,98.75
2023-01-06T06:19:41.960Z,98.42
2023-01-06T06:22:10.920Z,99.16
2023-01-06T06:24:38.338Z,98.56
2023-01-06T06:27:06.052Z,98.74
2023-01-06T06:29:33.430Z,98.69
2023-01-06T06:32:00.842Z,98.29
2023-01-06T06:34:28.376Z,98.47
2023-01-06T06:36:55.829Z,98.22
2023-01-06T06:39:24.531Z,98.93
2023-01-06T06:41:51.900Z,98.78
2023-01-06T06:44:19.393Z,98.51
2023-01-06T06:46:46.824Z,98.53
2023-01-06T06:49:14.273Z,97.78
2023-01-06T06:51:41.760Z,98.04
2023-01-06T06:54:09.167Z,97.70
2023-01-06T06:56:37.962Z,97.40
2023-01-06T06:59:05.860Z,98.05
2023-01-06T07:01:33.328Z,99.16
2023-01-06T07:04:01.118Z,98.79
2023-01-06T07:06:29.001Z,98.54
2023-01-06T07:08:56.533Z,98.81
2023-01-06T07:11:23.985Z,99.02
2023-01-06T07:13:52.766Z,99.50
2023-01-06T07:16:23.063Z,99.63
2023-01-06T07:18:50.449Z,99.69
2023-01-06T07:21:17.839Z,99.75
2023-01-06T07:23:45.366Z,100.00
2023-01-06T07:26:15.465Z,100.00
2023-01-06T07:28:42.892Z,100.00
2023-01-06T07:31:11.716Z,100.00
2023-01-06T07:33:39.108Z,100.00
2023-01-06T07:36:07.373Z,99.86
2023-01-06T07:38:35.128Z,100.00
2023-01-06T07:41:02.623Z,100.00
2023-01-06T07:43:30.058Z,99.91
2023-01-06T07:45:57.566Z,100.00
2023-01-06T07:48:26.307Z,100.00
2023-01-06T07:50:53.722Z,100.00
2023-01-06T07:53:21.531Z,100.00
2023-01-06T07:55:52.950Z,100.00
2023-01-06T07:58:21.200Z,100.00
2023-01-06T08:00:48.829Z,100.00
2023-01-06T08:03:16.553Z,99.98
2023-01-06T08:05:45.357Z,99.63
2023-01-06T08:08:13.433Z,100.00
2023-01-06T08:10:41.320Z,99.93
2023-01-06T08:13:08.634Z,99.58
2023-01-06T08:15:36.781Z,99.91
2023-01-06T08:18:04.424Z,98.95
2023-01-06T08:20:33.992Z,99.44
2023-01-06T08:23:03.290Z,99.90
2023-01-06T08:25:31.088Z,99.32
2023-01-06T08:27:58.788Z,99.34
2023-01-06T08:30:26.452Z,99.31
2023-01-06T08:32:57.407Z,99.30
2023-01-06T08:35:25.366Z,100.00
2023-01-06T08:37:52.962Z,100.00
2023-01-06T08:40:21.820Z,100.00
2023-01-06T08:42:49.238Z,100.00
2023-01-06T08:45:16.706Z,100.00
2023-01-06T08:47:44.195Z,99.93
2023-01-06T08:50:11.650Z,99.05
2023-01-06T08:52:39.021Z,98.89
2023-01-06T08:55:06.873Z,98.51
2023-01-06T08:57:35.982Z,97.52
2023-01-06T09:00:04.465Z,96.54
2023-01-06T09:02:31.899Z,95.86
2023-01-06T09:04:59.357Z,95.76
2023-01-06T09:07:26.813Z,95.47
2023-01-06T09:09:54.287Z,95.28
2023-01-06T09:12:21.746Z,95.30
2023-01-06T09:14:50.619Z,95.75
2023-01-06T09:17:18.839Z,95.33
2023-01-06T09:19:46.259Z,95.36
2023-01-06T09:22:13.713Z,94.96
2023-01-06T09:24:41.482Z,95.17
2023-01-06T09:27:08.919Z,95.11
2023-01-06T09:29:36.347Z,94.88
2023-01-06T09:32:05.472Z,95.05
2023-01-06T09:34:32.883Z,94.37
2023-01-06T09:37:00.391Z,94.73
2023-01-06T09:39:28.011Z,94.43
2023-01-06T09:42:24.228Z,95.20
2023-01-06T09:44:56.880Z,95.27
2023-01-06T09:47:29.096Z,95.82
2023-01-06T09:50:02.455Z,95.76
2023-01-06T09:52:34.785Z,95.96
2023-01-06T09:55:05.378Z,95.84
2023-01-06T09:57:38.087Z,95.77
2023-01-06T10:00:09.335Z,95.59
2023-01-06T10:02:41.185Z,95.28
2023-01-06T10:05:20.819Z,94.52
2023-01-06T10:07:54.614Z,93.90
2023-01-06T10:10:32.286Z,94.43
2023-01-06T10:13:11.081Z,94.84
2023-01-06T10:15:46.752Z,95.09
2023-01-06T10:18:33.763Z,95.41
2023-01-06T10:21:15.731Z,95.65
2023-01-06T10:24:03.557Z,95.23
2023-01-06T10:26:31.989Z,94.85
2023-01-06T10:29:05.130Z,94.77
2023-01-06T10:31:35.526Z,93.62
2023-01-06T10:34:05.438Z,93.93
2023-01-06T10:36:39.679Z,94.32
2023-01-06T10:39:14.057Z,94.42
2023-01-06T10:41:48.121Z,94.06
2023-01-06T10:44:15.586Z,93.91
2023-01-06T10:46:45.275Z,93.34
2023-01-06T10:49:17.958Z,93.95
2023-01-06T10:51:51.549Z,94.32
2023-01-06T10:54:23.376Z,94.12
2023-01-06T10:56:54.879Z,93.09
2023-01-06T10:59:22.315Z,94.07
2023-01-06T11:01:51.893Z,93.98
2023-01-06T11:04:21.512Z,93.58
2023-01-06T11:06:52.494Z,93.13
2023-01-06T11:09:26.946Z,93.31
2023-01-06T11:11:56.621Z,93.95
2023-01-06T11:14:28.990Z,91.76
2023-01-06T11:17:00.303Z,91.27
2023-01-06T11:19:36.506Z,89.93
2023-01-06T11:22:05.191Z,90.10
2023-01-06T11:24:33.192Z,89.48
2023-01-06T11:27:01.446Z,85.24
2023-01-06T11:29:32.244Z,84.82
2023-01-06T11:32:03.751Z,84.66
2023-01-06T11:34:32.191Z,84.02
2023-01-06T11:37:01.104Z,82.33
2023-01-06T11:39:34.214Z,80.74
2023-01-06T11:42:10.363Z,80.76
2023-01-06T11:44:39.641Z,80.53
2023-01-06T11:47:13.374Z,80.56
2023-01-06T11:49:46.773Z,79.70
2023-01-06T11:52:24.211Z,79.84
2023-01-06T11:55:00.509Z,79.84
2023-01-06T11:57:37.697Z,79.05
2023-01-06T12:00:31.574Z,78.53
2023-01-06T12:03:07.790Z,78.23
2023-01-06T12:05:42.686Z,78.16
2023-01-06T12:08:18.152Z,77.82
2023-01-06T12:10:49.307Z,77.80
2023-01-06T12:13:16.908Z,78.56
2023-01-06T12:15:47.137Z,77.73
2023-01-06T12:18:20.588Z,78.39
2023-01-06T12:20:51.212Z,80.00
2023-01-06T12:23:25.192Z,84.39
2023-01-06T12:25:55.832Z,86.92
2023-01-06T12:28:28.138Z,88.20
2023-01-06T12:31:03.638Z,89.89
2023-01-06T12:33:36.163Z,91.41
2023-01-06T12:36:09.132Z,91.53
2023-01-06T12:38:48.959Z,91.41
2023-01-06T12:41:24.045Z,91.29
2023-01-06T12:43:58.316Z,91.04
2023-01-06T12:46:30.304Z,91.11
2023-01-06T12:49:02.217Z,90.67
2023-01-06T12:51:36.756Z,90.15
2023-01-06T12:54:11.308Z,89.54
2023-01-06T12:56:54.757Z,88.64
2023-01-06T12:59:31.092Z,89.13
2023-01-06T13:02:09.241Z,88.88
2023-01-06T13:05:04.788Z,88.21
2023-01-06T13:07:43.423Z,85.79
2023-01-06T13:10:31.805Z,85.61
2023-01-06T13:13:29.192Z,82.71
2023-01-06T13:16:01.756Z,81.63
2023-01-06T13:18:35.004Z,81.05
2023-01-06T13:21:07.335Z,79.71
2023-01-06T13:23:49.931Z,78.55
2023-01-06T13:26:42.199Z,78.96
2023-01-06T13:29:19.298Z,79.04
2023-01-06T13:32:11.199Z,76.79
2023-01-06T13:34:57.751Z,75.83
2023-01-06T13:37:36.567Z,75.11
2023-01-06T13:40:10.928Z,74.89
2023-01-06T13:42:43.559Z,75.28
2023-01-06T13:45:18.052Z,73.63
2023-01-06T13:47:47.671Z,73.40
2023-01-06T13:50:17.758Z,73.63
2023-01-06T13:52:45.473Z,73.17
2023-01-06T13:55:26.094Z,72.89
2023-01-06T13:57:54.894Z,72.92
2023-01-06T14:00:28.083Z,72.54
2023-01-06T14:03:18.135Z,72.58
2023-01-06T14:05:53.799Z,72.58
2023-01-06T14:08:23.129Z,72.49
2023-01-06T14:10:58.775Z,72.45
2023-01-06T14:13:32.041Z,71.77
2023-01-06T14:16:04.455Z,72.91
2023-01-06T14:18:38.916Z,72.50
2023-01-06T14:21:15.757Z,72.89
2023-01-06T14:23:56.373Z,72.76
2023-01-06T14:26:55.550Z,72.68
2023-01-06T14:29:47.284Z,72.93
2023-01-06T14:32:48.235Z,72.68
2023-01-06T14:35:19.080Z,74.02
2023-01-06T14:37:51.521Z,74.20
2023-01-06T14:40:23.593Z,73.65
2023-01-06T14:42:52.197Z,73.55
2023-01-06T14:45:24.207Z,74.81
2023-01-06T14:47:54.430Z,73.17
2023-01-06T14:50:31.968Z,73.21
2023-01-06T14:53:06.923Z,73.89
2023-01-06T14:55:40.572Z,73.21
2023-01-06T14:58:28.495Z,73.20
2023-01-06T15:00:57.356Z,73.75
2023-01-06T15:03:26.130Z,73.23
2023-01-06T15:06:10.558Z,73.05
2023-01-06T15:08:38.096Z,72.76
2023-01-06T15:11:25.572Z,72.15
2023-01-06T15:13:53.081Z,71.88
2023-01-06T15:16:32.546Z,72.40
2023-01-06T15:19:00.740Z,72.03
2023-01-06T15:21:28.815Z,73.09
2023-01-06T15:23:56.382Z,73.12
2023-01-06T15:26:26.607Z,75.31
2023-01-06T15:29:02.202Z,74.45
2023-01-06T15:31:34.383Z,75.99
2023-01-06T15:34:05.948Z,75.97
2023-01-06T15:36:34.059Z,74.54
2023-01-06T15:39:04.090Z,73.99
2023-01-06T15:41:36.805Z,74.15
2023-01-06T15:44:21.106Z,72.69
2023-01-06T15:46:53.546Z,73.27
2023-01-06T15:49:27.367Z,72.27
2023-01-06T15:51:57.127Z,73.24
2023-01-06T15:54:26.808Z,72.93
2023-01-06T15:56:54.377Z,72.26
2023-01-06T15:59:22.634Z,72.15
2023-01-06T16:01:55.400Z,72.67
2023-01-06T16:07:23.637Z,72.70
2023-01-06T16:09:51.033Z,71.57
2023-01-06T16:12:20.812Z,72.20
2023-01-06T16:14:49.344Z,72.29
2023-01-06T16:17:25.286Z,72.46
2023-01-06T16:19:59.993Z,73.03
2023-01-06T16:22:34.702Z,72.78
2023-01-06T16:25:05.416Z,72.62
2023-01-06T16:27:32.997Z,73.66
2023-01-06T16:30:20.865Z,73.52
2023-01-06T16:32:52.487Z,73.53
2023-01-06T16:35:21.884Z,77.08
2023-01-06T16:37:49.904Z,79.78
2023-01-06T16:40:17.990Z,80.94
2023-01-06T16:42:46.506Z,81.81
2023-01-06T16:45:21.551Z,82.72
2023-01-06T16:47:50.691Z,82.19
2023-01-06T16:50:20.776Z,82.20
2023-01-06T16:52:52.743Z,81.05
2023-01-06T16:55:21.218Z,80.45
2023-01-06T16:57:50.929Z,80.16
2023-01-06T17:00:20.765Z,78.74
2023-01-06T17:02:50.682Z,78.88
2023-01-06T17:05:22.648Z,78.93
2023-01-06T17:07:50.862Z,78.73
2023-01-06T17:10:21.926Z,77.87
2023-01-06T17:13:15.535Z,77.67
2023-01-06T17:15:43.285Z,77.38
2023-01-06T17:18:22.385Z,76.46
2023-01-06T17:20:50.970Z,76.59
2023-01-06T17:23:18.532Z,77.33
2023-01-06T17:25:46.146Z,76.83
2023-01-06T17:28:19.945Z,77.50
2023-01-06T17:30:48.878Z,77.41
2023-01-06T17:33:19.663Z,77.37
2023-01-06T17:35:49.780Z,77.85
2023-01-06T17:38:21.078Z,77.62
2023-01-06T17:40:49.453Z,78.21
2023-01-06T17:43:25.485Z,79.26
2023-01-06T17:45:55.432Z,79.51
2023-01-06T17:48:24.243Z,79.88
2023-01-06T17:50:53.962Z,80.08
2023-01-06T17:53:45.973Z,80.35
2023-01-06T17:56:14.009Z,80.18
2023-01-06T17:58:42.799Z,80.86
2023-01-06T18:01:15.024Z,80.79
2023-01-06T18:03:44.931Z,80.29
2023-01-06T18:06:21.969Z,80.81
2023-01-06T18:08:51.271Z,80.60
2023-01-06T18:11:24.759Z,80.12
2023-01-06T18:13:53.580Z,79.79
2023-01-06T18:16:28.148Z,80.22
2023-01-06T18:19:05.377Z,80.46
2023-01-06T18:21:37.599Z,80.17
2023-01-06T18:24:17.650Z,80.64
2023-01-06T18:26:48.976Z,80.75
2023-01-06T18:29:19.195Z,80.48
2023-01-06T18:31:48.533Z,80.42
2023-01-06T18:34:33.650Z,80.08
2023-01-06T18:37:02.006Z,79.91
2023-01-06T18:39:31.988Z,80.20
2023-01-06T18:42:13.788Z,80.25
2023-01-06T18:44:41.318Z,80.05
2023-01-06T18:47:15.381Z,79.97
2023-01-06T18:49:44.274Z,80.54
2023-01-06T18:52:40.217Z,80.10
2023-01-06T18:55:19.885Z,80.51
2023-01-06T18:57:54.776Z,80.89
2023-01-06T19:00:32.597Z,80.63
2023-01-06T19:03:05.697Z,80.68
2023-01-06T19:05:34.941Z,80.43
2023-01-06T19:08:11.437Z,80.67
2023-01-06T19:10:38.835Z,80.92
2023-01-06T19:13:16.482Z,81.44
2023-01-06T19:15:43.850Z,81.41
2023-01-06T19:18:15.580Z,81.69
2023-01-06T19:20:46.229Z,81.89
2023-01-06T19:23:19.904Z,81.83
2023-01-06T19:25:51.403Z,81.15
2023-01-06T19:28:22.277Z,81.28
2023-01-06T19:30:52.192Z,81.11
2023-01-06T19:33:39.541Z,81.33
2023-01-06T19:36:39.394Z,81.52
2023-01-06T19:39:30.303Z,81.90
2023-01-06T19:42:09.483Z,82.22
2023-01-06T19:44:38.522Z,82.45
2023-01-06T19:47:16.718Z,83.03
2023-01-06T19:49:49.476Z,82.43
2023-01-06T19:52:34.994Z,82.66
2023-01-06T19:55:19.786Z,82.41
2023-01-06T19:57:51.807Z,82.31
2023-01-06T20:00:26.651Z,82.19
2023-01-06T20:02:57.447Z,82.25
2023-01-06T20:05:25.489Z,82.66
2023-01-06T20:07:54.107Z,82.72
2023-01-06T20:10:21.685Z,82.95
2023-01-06T20:12:49.286Z,83.00
2023-01-06T20:15:17.414Z,83.02
2023-01-06T20:17:44.703Z,82.87
2023-01-06T20:20:12.436Z,83.19
2023-01-06T20:22:39.803Z,83.43
2023-01-06T20:25:09.177Z,83.42
2023-01-06T20:27:36.579Z,83.12
2023-01-06T20:30:04.981Z,83.26
2023-01-06T20:32:32.340Z,83.59
2023-01-06T20:34:59.691Z,84.15
2023-01-06T20:37:27.169Z,84.08
2023-01-06T20:39:54.579Z,84.36
2023-01-06T20:42:23.263Z,83.81
2023-01-06T20:44:50.685Z,83.97
2023-01-06T20:47:18.183Z,84.15
2023-01-06T20:49:45.811Z,84.29
2023-01-06T20:52:13.180Z,84.02
2023-01-06T20:54:40.559Z,84.31
2023-01-06T20:57:07.971Z,84.20
2023-01-06T20:59:36.653Z,84.56
2023-01-06T21:02:04.146Z,84.65
2023-01-06T21:04:34.270Z,84.85
2023-01-06T21:07:01.874Z,84.13
2023-01-06T21:09:29.331Z,84.44
2023-01-06T21:11:56.981Z,84.97
2023-01-06T21:14:24.708Z,85.08
2023-01-06T21:16:53.388Z,84.62
2023-01-06T21:19:20.808Z,85.03
2023-01-06T21:21:48.509Z,85.35
2023-01-06T21:24:15.883Z,85.56
2023-01-06T21:26:43.223Z,86.02
2023-01-06T21:29:10.630Z,86.11
2023-01-06T21:31:38.133Z,86.08
2023-01-06T21:34:06.845Z,86.38
2023-01-06T21:36:34.218Z,86.60
2023-01-06T21:39:01.611Z,86.46
2023-01-06T21:41:46.340Z,85.70
2023-01-06T21:44:13.791Z,85.93
2023-01-06T21:46:41.210Z,85.81
2023-01-06T21:49:10.409Z,85.94
2023-01-06T21:51:38.238Z,86.18
2023-01-06T21:54:06.395Z,85.11
2023-01-06T21:56:34.821Z,85.74
2023-01-06T21:59:02.627Z,85.55
2023-01-06T22:01:30.095Z,85.81
2023-01-06T22:03:57.909Z,86.49
2023-01-06T22:06:29.739Z,86.56
2023-01-06T22:09:00.050Z,86.77
2023-01-06T22:11:30.225Z,86.50
2023-01-06T22:13:58.917Z,86.29
2023-01-06T22:16:27.065Z,85.60
2023-01-06T22:18:54.647Z,84.93
2023-01-06T22:21:24.441Z,86.02
2023-01-06T22:23:54.705Z,86.31
2023-01-06T22:26:22.065Z,86.53
2023-01-06T22:28:49.497Z,86.88
2023-01-06T22:31:21.563Z,87.20
2023-01-06T22:33:49.302Z,86.73
2023-01-06T22:36:17.532Z,86.88
2023-01-06T22:38:45.531Z,87.38
2023-01-06T22:41:14.145Z,87.83
2023-01-06T22:43:42.150Z,86.83
2023-01-06T22:46:09.908Z,86.73
2023-01-06T22:48:38.049Z,87.30
2023-01-06T22:51:06.994Z,87.62
2023-01-06T22:53:35.013Z,86.35
2023-01-06T22:56:03.093Z,86.49
2023-01-06T22:58:33.424Z,85.74
2023-01-06T23:01:00.926Z,86.05
2023-01-06T23:03:28.997Z,85.83
2023-01-06T23:05:57.721Z,85.50
2023-01-06T23:08:26.798Z,86.06
2023-01-06T23:10:59.969Z,84.95
2023-01-06T23:13:27.664Z,85.37
2023-01-06T23:16:04.050Z,85.01
2023-01-06T23:18:32.204Z,84.92
2023-01-06T23:21:00.370Z,85.73
2023-01-06T23:23:28.267Z,86.40
2023-01-06T23:26:02.436Z,86.45
2023-01-06T23:28:30.121Z,86.72
2023-01-06T23:31:07.939Z,87.19
2023-01-06T23:33:37.830Z,87.71
2023-01-06T23:36:06.240Z,87.45
2023-01-06T23:38:34.079Z,86.37
2023-01-06T23:41:03.380Z,85.85
2023-01-06T23:43:32.708Z,86.06
2023-01-06T23:46:01.380Z,85.98
2023-01-06T23:48:31.868Z,85.09
2023-01-06T23:50:59.978Z,85.66
2023-01-06T23:53:28.066Z,85.13
2023-01-06T23:55:56.555Z,84.78
2023-01-06T23:58:24.068Z,85.28
